Maersk Wakamatsu — 3EZG — position and weather

sailwx.info

Track history (hours):
 
Tides and Currents Weather Stations Pressure Air Temp Water Temp Dewpoint Dewpoint Depression Visibility Wind Speed Wind Dir Waves Ship Positions

Maersk Wakamatsu

Last reported at 2017-Feb-23 03:07 UTC. Time now 2017-Feb-24 10:31 UTC.
Position N 09°37' W 079°43'.

Length 172 m; draft 9 m.

Type: Cargo ship. MMSI: 370484000.

Date/timePositionNaut miles runAvg speedWind from/ knotsBaromVisibWave heightAir tempDewpointWater temp
2017-Feb-23 03:07N 09°37' W 079°43'711.3
2017-Feb-23 02:31N 09°31' W 079°48'1010.8
2017-Feb-23 01:33N 09°23' W 079°54'1 1.0
2017-Feb-23 00:30N 09°22' W 079°53'0 0.0
2017-Feb-22 23:30N 09°22' W 079°53'0 0.0
2017-Feb-22 22:33N 09°22' W 079°53'0 0.0
2017-Feb-22 21:33N 09°22' W 079°53'0 0.0
2017-Feb-22 20:30N 09°22' W 079°53'0 0.0
2017-Feb-22 19:33N 09°22' W 079°53'0 0.0
2017-Feb-22 18:33N 09°22' W 079°53'0 0.0
2017-Feb-22 17:33N 09°22' W 079°53'0 0.0
2017-Feb-22 16:33N 09°22' W 079°53'0 0.0
2017-Feb-22 15:33N 09°22' W 079°53'0 0.0
2017-Feb-22 14:33N 09°22' W 079°53'0 0.0
2017-Feb-22 13:33N 09°22' W 079°53'0 0.0
2017-Feb-22 12:33N 09°22' W 079°53'0 0.0
2017-Feb-22 11:33N 09°22' W 079°53'0 0.0
2017-Feb-22 10:30N 09°22' W 079°53'0 0.0
2017-Feb-22 09:33N 09°22' W 079°53'0 0.0
2017-Feb-22 08:33N 09°22' W 079°53'0 0.0
2017-Feb-22 07:33N 09°22' W 079°53'0 0.0
2017-Feb-22 06:33N 09°22' W 079°53'0 0.0
2017-Feb-22 05:33N 09°22' W 079°53'0 0.0
2017-Feb-22 04:33N 09°22' W 079°53'0 0.0
2017-Feb-22 03:33N 09°22' W 079°53'0 0.0
2017-Feb-22 02:33N 09°22' W 079°53'0 0.0
2017-Feb-22 01:33N 09°22' W 079°53'0 0.0
2017-Feb-22 00:33N 09°22' W 079°53'0 0.0
2017-Feb-21 23:33N 09°22' W 079°53'4 3.9
2017-Feb-21 22:33N 09°26' W 079°54'2 1.8
2017-Feb-21 21:34N 09°28' W 079°54'  
2017-Feb-14 20:33N 11°01' W 062°15'1414.4
2017-Feb-14 19:33N 10°54' W 062°02'1010.2
2017-Feb-14 18:33N 10°49' W 061°53'1010.3
2017-Feb-14 17:33N 10°39' W 061°49'1010.3
2017-Feb-14 16:33N 10°32' W 061°42'1110.9
2017-Feb-14 15:33N 10°25' W 061°33'4 3.6
2017-Feb-14 14:31N 10°24' W 061°30'0 0.0
2017-Feb-14 13:31N 10°24' W 061°30'0 0.0
2017-Feb-14 12:31N 10°24' W 061°30'0 0.0
2017-Feb-14 11:31N 10°24' W 061°30'0 0.0
2017-Feb-14 10:31N 10°24' W 061°30'0 0.0
2017-Feb-14 09:31N 10°24' W 061°30'0 0.0
2017-Feb-14 08:31N 10°24' W 061°30'0 0.0
2017-Feb-14 07:31N 10°24' W 061°30'0 0.0
2017-Feb-14 06:31N 10°24' W 061°30'0 0.0
2017-Feb-14 05:31N 10°24' W 061°30'0 0.0
2017-Feb-14 04:31N 10°24' W 061°30'0 0.0
2017-Feb-14 03:31N 10°24' W 061°30'0 0.2
2017-Feb-14 02:33N 10°24' W 061°30'7 6.5
2017-Feb-14 01:33N 10°27' W 061°36'1817.9
2017-Feb-14 00:33N 10°40' W 061°48'1918.9
2017-Feb-13 23:33N 10°52' W 061°33'  
Track history (hours):
 
Tides and Currents Weather Stations Pressure Air Temp Water Temp Dewpoint Dewpoint Depression Visibility Wind Speed Wind Dir Waves Ship Positions

Maersk Wakamatsu

Last reported at 2017-Feb-23 03:07 UTC. Time now 2017-Feb-24 10:31 UTC.
Position N 09°37' W 079°43'.

Length 172 m; draft 9 m.

Type: Cargo ship. MMSI: 370484000.

Date/timePositionNaut miles runAvg speedWind from/ knotsBaromVisibWave heightAir tempDewpointWater temp
2017-Feb-23 03:07N 09°37' W 079°43'711.3
2017-Feb-23 02:31N 09°31' W 079°48'1010.8
2017-Feb-23 01:33N 09°23' W 079°54'1 1.0
2017-Feb-23 00:30N 09°22' W 079°53'0 0.0
2017-Feb-22 23:30N 09°22' W 079°53'0 0.0
2017-Feb-22 22:33N 09°22' W 079°53'0 0.0
2017-Feb-22 21:33N 09°22' W 079°53'0 0.0
2017-Feb-22 20:30N 09°22' W 079°53'0 0.0
2017-Feb-22 19:33N 09°22' W 079°53'0 0.0
2017-Feb-22 18:33N 09°22' W 079°53'0 0.0
2017-Feb-22 17:33N 09°22' W 079°53'0 0.0
2017-Feb-22 16:33N 09°22' W 079°53'0 0.0
2017-Feb-22 15:33N 09°22' W 079°53'0 0.0
2017-Feb-22 14:33N 09°22' W 079°53'0 0.0
2017-Feb-22 13:33N 09°22' W 079°53'0 0.0
2017-Feb-22 12:33N 09°22' W 079°53'0 0.0
2017-Feb-22 11:33N 09°22' W 079°53'0 0.0
2017-Feb-22 10:30N 09°22' W 079°53'0 0.0
2017-Feb-22 09:33N 09°22' W 079°53'0 0.0
2017-Feb-22 08:33N 09°22' W 079°53'0 0.0
2017-Feb-22 07:33N 09°22' W 079°53'0 0.0
2017-Feb-22 06:33N 09°22' W 079°53'0 0.0
2017-Feb-22 05:33N 09°22' W 079°53'0 0.0
2017-Feb-22 04:33N 09°22' W 079°53'0 0.0
2017-Feb-22 03:33N 09°22' W 079°53'0 0.0
2017-Feb-22 02:33N 09°22' W 079°53'0 0.0
2017-Feb-22 01:33N 09°22' W 079°53'0 0.0
2017-Feb-22 00:33N 09°22' W 079°53'0 0.0
2017-Feb-21 23:33N 09°22' W 079°53'4 3.9
2017-Feb-21 22:33N 09°26' W 079°54'2 1.8
2017-Feb-21 21:34N 09°28' W 079°54'  
2017-Feb-14 20:33N 11°01' W 062°15'1414.4
2017-Feb-14 19:33N 10°54' W 062°02'1010.2
2017-Feb-14 18:33N 10°49' W 061°53'1010.3
2017-Feb-14 17:33N 10°39' W 061°49'1010.3
2017-Feb-14 16:33N 10°32' W 061°42'1110.9
2017-Feb-14 15:33N 10°25' W 061°33'4 3.6
2017-Feb-14 14:31N 10°24' W 061°30'0 0.0
2017-Feb-14 13:31N 10°24' W 061°30'0 0.0
2017-Feb-14 12:31N 10°24' W 061°30'0 0.0
2017-Feb-14 11:31N 10°24' W 061°30'0 0.0
2017-Feb-14 10:31N 10°24' W 061°30'0 0.0
2017-Feb-14 09:31N 10°24' W 061°30'0 0.0
2017-Feb-14 08:31N 10°24' W 061°30'0 0.0
2017-Feb-14 07:31N 10°24' W 061°30'0 0.0
2017-Feb-14 06:31N 10°24' W 061°30'0 0.0
2017-Feb-14 05:31N 10°24' W 061°30'0 0.0
2017-Feb-14 04:31N 10°24' W 061°30'0 0.0
2017-Feb-14 03:31N 10°24' W 061°30'0 0.2
2017-Feb-14 02:33N 10°24' W 061°30'7 6.5
2017-Feb-14 01:33N 10°27' W 061°36'1817.9
2017-Feb-14 00:33N 10°40' W 061°48'1918.9
2017-Feb-13 23:33N 10°52' W 061°33'  

Dump ship's entire track history